createdAt,value
2023-02-18T00:00:30.485Z,98090.25
2023-02-18T00:03:17.637Z,98087.56
2023-02-18T00:05:44.472Z,98088.47
2023-02-18T00:08:11.601Z,98087.75
2023-02-18T00:10:42.016Z,98094.75
2023-02-18T00:13:09.645Z,98092.13
2023-02-18T00:15:37.761Z,98102.22
2023-02-18T00:18:05.668Z,98098.56
2023-02-18T00:20:33.696Z,98101.19
2023-02-18T00:23:00.833Z,98098.72
2023-02-18T00:25:27.744Z,98109.88
2023-02-18T00:27:54.970Z,98104.59
2023-02-18T00:30:21.934Z,98097.53
2023-02-18T00:32:49.061Z,98109.59
2023-02-18T00:35:16.069Z,98110.22
2023-02-18T00:37:43.213Z,98103.16
2023-02-18T00:40:10.385Z,98101.41
2023-02-18T00:42:37.566Z,98084.63
2023-02-18T00:45:04.813Z,98089.78
2023-02-18T00:47:32.006Z,98088.88
2023-02-18T00:49:58.909Z,98087.00
2023-02-18T00:52:26.178Z,98083.59
2023-02-18T00:54:53.077Z,98068.66
2023-02-18T00:57:20.237Z,98068.00
2023-02-18T00:59:47.170Z,98074.22
2023-02-18T01:02:14.357Z,98051.63
2023-02-18T01:04:41.279Z,98056.81
2023-02-18T01:07:10.466Z,98054.25
2023-02-18T01:09:37.385Z,98039.13
2023-02-18T01:12:04.825Z,98039.78
2023-02-18T01:14:31.703Z,98033.47
2023-02-18T01:16:58.940Z,98040.28
2023-02-18T01:19:25.874Z,98045.34
2023-02-18T01:21:53.037Z,98047.22
2023-02-18T01:24:20.162Z,98051.31
2023-02-18T01:26:47.381Z,98046.97
2023-02-18T01:29:14.329Z,98060.00
2023-02-18T01:31:41.553Z,98047.09
2023-02-18T01:34:08.651Z,98060.31
2023-02-18T01:36:35.862Z,98061.91
2023-02-18T01:39:02.740Z,98057.50
2023-02-18T01:41:29.993Z,98051.22
2023-02-18T01:44:18.568Z,98045.06
2023-02-18T01:46:45.974Z,98037.84
2023-02-18T01:49:20.045Z,98049.00
2023-02-18T01:51:51.555Z,98055.31
2023-02-18T01:54:34.280Z,98033.78
2023-02-18T01:57:12.492Z,98025.78
2023-02-18T01:59:47.270Z,98021.81
2023-02-18T02:02:19.376Z,98020.66
2023-02-18T02:04:46.457Z,98013.94
2023-02-18T02:07:14.295Z,98022.38
2023-02-18T02:09:43.029Z,98006.22
2023-02-18T02:12:13.019Z,98013.31
2023-02-18T02:14:58.022Z,98015.72
2023-02-18T02:17:40.348Z,98025.22
2023-02-18T02:20:28.914Z,98022.66
2023-02-18T02:23:28.235Z,98008.97
2023-02-18T02:26:13.688Z,98030.78
2023-02-18T02:29:14.601Z,98010.44
2023-02-18T02:32:18.024Z,98014.88
2023-02-18T02:34:53.448Z,98006.50
2023-02-18T02:37:44.855Z,98009.41
2023-02-18T02:43:32.102Z,98025.25
2023-02-18T02:46:19.718Z,98033.31
2023-02-18T02:49:08.106Z,98017.84
2023-02-18T02:51:46.624Z,98007.34
2023-02-18T02:54:21.740Z,98026.69
2023-02-18T02:56:49.712Z,98039.88
2023-02-18T02:59:20.735Z,98030.47
2023-02-18T03:02:15.376Z,98031.31
2023-02-18T03:04:54.459Z,98016.72
2023-02-18T03:07:21.641Z,98049.25
2023-02-18T03:10:03.366Z,98046.63
2023-02-18T03:12:49.777Z,98049.50
2023-02-18T03:15:35.273Z,98069.28
2023-02-18T03:31:54.562Z,98090.19
2023-02-18T03:34:34.455Z,98111.84
2023-02-18T03:37:02.089Z,98108.72
2023-02-18T03:39:33.031Z,98101.81
2023-02-18T03:42:00.234Z,98111.25
2023-02-18T03:44:27.363Z,98122.06
2023-02-18T03:46:54.601Z,98130.31
2023-02-18T03:49:21.849Z,98124.91
2023-02-18T03:51:48.869Z,98131.38
2023-02-18T03:54:16.180Z,98130.81
2023-02-18T03:56:43.391Z,98125.00
2023-02-18T03:59:12.037Z,98146.66
2023-02-18T04:01:39.285Z,98148.28
2023-02-18T04:04:06.594Z,98151.41
2023-02-18T04:06:33.629Z,98160.19
2023-02-18T04:09:00.807Z,98154.38
2023-02-18T04:11:27.722Z,98154.88
2023-02-18T04:13:54.921Z,98177.78
2023-02-18T04:16:21.873Z,98169.63
2023-02-18T04:18:49.052Z,98168.00
2023-02-18T04:21:15.917Z,98165.53
2023-02-18T04:23:43.052Z,98169.91
2023-02-18T04:26:10.388Z,98180.34
2023-02-18T04:28:37.863Z,98198.78
2023-02-18T04:31:05.118Z,98201.34
2023-02-18T04:33:32.420Z,98203.31
2023-02-18T04:35:59.383Z,98208.00
2023-02-18T04:38:26.577Z,98211.75
2023-02-18T04:40:53.619Z,98222.38
2023-02-18T04:43:20.835Z,98212.03
2023-02-18T04:45:47.758Z,98208.41
2023-02-18T04:48:14.960Z,98219.75
2023-02-18T04:50:42.350Z,98197.00
2023-02-18T04:53:09.756Z,98209.47
2023-02-18T04:55:36.708Z,98220.03
2023-02-18T04:58:03.906Z,98220.31
2023-02-18T05:00:30.813Z,98222.84
2023-02-18T05:02:58.102Z,98229.28
2023-02-18T05:05:25.004Z,98226.69
2023-02-18T05:07:52.176Z,98219.00
2023-02-18T05:43:18.944Z,98252.84
2023-02-18T05:45:47.239Z,98260.91
2023-02-18T05:48:16.240Z,98260.38
2023-02-18T05:50:43.606Z,98267.53
2023-02-18T05:53:14.785Z,98270.94
2023-02-18T05:55:46.924Z,98264.06
2023-02-18T05:58:17.203Z,98267.72
2023-02-18T06:00:45.055Z,98257.97
2023-02-18T06:03:12.787Z,98271.31
2023-02-18T06:05:40.772Z,98257.38
2023-02-18T06:08:12.781Z,98261.69
2023-02-18T06:10:40.861Z,98271.97
2023-02-18T06:13:07.805Z,98281.56
2023-02-18T06:15:34.958Z,98269.25
2023-02-18T06:18:01.816Z,98266.28
2023-02-18T06:20:29.043Z,98267.41
2023-02-18T06:22:55.968Z,98273.41
2023-02-18T06:25:23.158Z,98274.78
2023-02-18T06:27:50.049Z,98261.56
2023-02-18T06:30:17.540Z,98276.28
2023-02-18T06:32:44.769Z,98270.03
2023-02-18T06:35:12.261Z,98272.88
2023-02-18T06:37:39.135Z,98270.97
2023-02-18T06:40:07.318Z,98276.41
2023-02-18T06:42:34.248Z,98288.53
2023-02-18T06:45:01.462Z,98295.00
2023-02-18T06:47:28.568Z,98298.16
2023-02-18T06:49:55.728Z,98285.38
2023-02-18T06:52:22.597Z,98300.16
2023-02-18T06:54:49.828Z,98276.53
2023-02-18T06:57:16.727Z,98280.53
2023-02-18T06:59:44.217Z,98278.88
2023-02-18T07:02:13.618Z,98268.31
2023-02-18T07:04:40.837Z,98279.72
2023-02-18T07:07:07.832Z,98282.31
2023-02-18T07:09:35.026Z,98280.06
2023-02-18T07:12:02.031Z,98280.75
2023-02-18T07:14:29.275Z,98257.47
2023-02-18T07:16:56.379Z,98272.06
2023-02-18T07:19:23.628Z,98266.31
2023-02-18T07:21:50.894Z,98266.97
2023-02-18T07:24:18.416Z,98277.28
2023-02-18T07:26:45.273Z,98259.59
2023-02-18T07:29:12.553Z,98250.97
2023-02-18T07:31:39.591Z,98259.59
2023-02-18T07:34:06.796Z,98273.59
2023-02-18T07:36:33.695Z,98282.63
2023-02-18T07:39:00.926Z,98265.97
2023-02-18T07:41:27.880Z,98293.69
2023-02-18T07:44:00.695Z,98291.25
2023-02-18T07:46:27.655Z,98290.19
2023-02-18T07:48:55.021Z,98286.34
2023-02-18T07:51:21.932Z,98295.94
2023-02-18T07:53:49.142Z,98294.19
2023-02-18T07:56:16.108Z,98277.28
2023-02-18T07:58:43.320Z,98296.84
2023-02-18T08:01:14.894Z,98287.97
2023-02-18T08:03:43.079Z,98279.91
2023-02-18T08:06:25.322Z,98297.78
2023-02-18T08:08:52.596Z,98273.66
2023-02-18T08:11:19.914Z,98291.31
2023-02-18T08:13:48.990Z,98287.09
2023-02-18T08:16:18.250Z,98297.72
2023-02-18T08:18:47.887Z,98300.25
2023-02-18T08:21:15.446Z,98315.06
2023-02-18T08:23:42.922Z,98321.34
2023-02-18T08:26:10.628Z,98330.47
2023-02-18T08:28:38.078Z,98328.44
2023-02-18T08:31:05.131Z,98325.19
2023-02-18T08:33:33.562Z,98322.22
2023-02-18T08:36:00.446Z,98334.34
2023-02-18T08:38:27.604Z,98331.50
2023-02-18T08:41:02.970Z,98322.06
2023-02-18T08:43:31.652Z,98330.91
2023-02-18T08:45:59.412Z,98320.59
2023-02-18T08:48:27.295Z,98331.72
2023-02-18T08:50:54.250Z,98330.06
2023-02-18T08:53:22.024Z,98319.22
2023-02-18T08:55:48.913Z,98321.16
2023-02-18T08:58:17.341Z,98329.94
2023-02-18T09:00:45.430Z,98328.25
2023-02-18T09:03:16.325Z,98330.22
2023-02-18T09:05:43.357Z,98326.50
2023-02-18T09:08:10.686Z,98317.09
2023-02-18T09:10:39.503Z,98285.78
2023-02-18T09:13:06.696Z,98307.47
2023-02-18T09:15:33.643Z,98322.41
2023-02-18T09:18:00.975Z,98296.13
2023-02-18T09:20:28.378Z,98318.47
2023-02-18T09:22:55.749Z,98312.94
2023-02-18T09:29:24.058Z,98299.13
2023-02-18T09:31:51.106Z,98304.38
2023-02-18T09:34:19.252Z,98307.91
2023-02-18T09:36:46.306Z,98324.28
2023-02-18T09:39:14.073Z,98327.03
2023-02-18T09:41:50.330Z,98307.38
2023-02-18T09:44:40.633Z,98312.28
2023-02-18T09:47:21.777Z,98315.94
2023-02-18T09:49:54.449Z,98317.31
2023-02-18T09:52:29.133Z,98313.31
2023-02-18T09:54:56.856Z,98312.38
2023-02-18T09:57:29.669Z,98310.38
2023-02-18T10:00:13.122Z,98300.63
2023-02-18T10:02:41.881Z,98281.34
2023-02-18T10:05:15.193Z,98297.38
2023-02-18T10:07:43.070Z,98283.41
2023-02-18T10:10:34.837Z,98305.19
2023-02-18T10:13:06.543Z,98291.44
2023-02-18T10:15:34.290Z,98304.38
2023-02-18T10:18:02.364Z,98306.75
2023-02-18T10:20:32.213Z,98298.84
2023-02-18T10:23:02.397Z,98295.56
2023-02-18T10:25:30.878Z,98298.56
2023-02-18T10:28:00.133Z,98296.06
2023-02-18T10:30:36.238Z,98296.00
2023-02-18T10:33:21.112Z,98293.63
2023-02-18T10:36:02.759Z,98281.69
2023-02-18T10:38:50.520Z,98277.38
2023-02-18T10:41:27.819Z,98274.72
2023-02-18T10:44:36.624Z,98270.50
2023-02-18T10:47:13.107Z,98252.84
2023-02-18T10:50:04.810Z,98267.78
2023-02-18T10:52:38.436Z,98269.78
2023-02-18T10:55:11.804Z,98249.44
2023-02-18T10:57:54.093Z,98259.28
2023-02-18T11:00:27.318Z,98261.97
2023-02-18T11:03:08.075Z,98264.88
2023-02-18T11:05:36.737Z,98257.31
2023-02-18T11:08:09.712Z,98255.03
2023-02-18T11:10:40.337Z,98265.19
2023-02-18T11:13:09.519Z,98259.56
2023-02-18T11:15:37.320Z,98256.69
2023-02-18T11:18:25.899Z,98248.34
2023-02-18T11:20:58.323Z,98236.72
2023-02-18T11:23:25.801Z,98245.41
2023-02-18T11:26:15.080Z,98248.03
2023-02-18T11:28:44.949Z,98233.72
2023-02-18T11:31:20.029Z,98226.91
2023-02-18T11:34:02.526Z,98219.22
2023-02-18T11:36:32.198Z,98218.25
2023-02-18T11:39:07.533Z,98223.13
2023-02-18T11:41:39.894Z,98210.59
2023-02-18T11:55:16.523Z,98216.09
2023-02-18T11:57:49.093Z,98220.81
2023-02-18T12:00:38.092Z,98205.41
2023-02-18T12:03:24.633Z,98215.91
2023-02-18T12:05:52.251Z,98192.66
2023-02-18T12:08:30.331Z,98202.44
2023-02-18T12:11:07.285Z,98213.69
2023-02-18T12:13:48.377Z,98212.00
2023-02-18T12:16:37.308Z,98205.66
2023-02-18T12:19:37.276Z,98189.81
2023-02-18T12:22:37.823Z,98197.31
2023-02-18T12:25:37.633Z,98190.28
2023-02-18T12:28:48.761Z,98187.88
2023-02-18T12:31:23.035Z,98192.94
2023-02-18T12:34:17.352Z,98177.25
2023-02-18T12:36:59.839Z,98171.47
2023-02-18T12:39:36.188Z,98192.09
2023-02-18T12:42:06.367Z,98189.22
2023-02-18T12:45:09.977Z,98179.97
2023-02-18T12:48:14.736Z,98197.81
2023-02-18T12:50:51.956Z,98203.25
2023-02-18T12:53:58.598Z,98186.88
2023-02-18T12:56:34.574Z,98189.03
2023-02-18T12:59:33.919Z,98169.63
2023-02-18T13:02:21.924Z,98180.28
2023-02-18T13:05:19.802Z,98176.63
2023-02-18T13:08:02.044Z,98186.41
2023-02-18T13:10:42.264Z,98201.09
2023-02-18T13:13:11.785Z,98189.13
2023-02-18T13:15:48.099Z,98192.28
2023-02-18T13:18:33.808Z,98197.19
2023-02-18T13:21:06.099Z,98198.16
2023-02-18T13:23:40.364Z,98194.56
2023-02-18T13:26:14.098Z,98195.50
2023-02-18T13:28:43.780Z,98206.88
2023-02-18T13:31:35.862Z,98193.91
2023-02-18T13:34:12.336Z,98189.97
2023-02-18T13:36:51.960Z,98188.19
2023-02-18T13:39:21.171Z,98194.56
2023-02-18T13:41:50.090Z,98200.19
2023-02-18T13:44:22.630Z,98200.06
2023-02-18T13:46:56.483Z,98197.41
2023-02-18T13:49:32.211Z,98196.13
2023-02-18T13:52:02.106Z,98199.31
2023-02-18T13:54:44.954Z,98192.78
2023-02-18T13:57:19.371Z,98196.25
2023-02-18T13:59:51.230Z,98200.97
2023-02-18T14:02:21.531Z,98186.06
2023-02-18T14:04:51.016Z,98190.69
2023-02-18T14:07:27.728Z,98189.06
2023-02-18T14:10:00.488Z,98190.06
2023-02-18T14:12:44.318Z,98190.78
2023-02-18T14:15:20.278Z,98201.97
2023-02-18T14:18:09.326Z,98201.41
2023-02-18T14:20:38.901Z,98191.00
2023-02-18T14:23:19.207Z,98172.06
2023-02-18T14:25:52.260Z,98175.03
2023-02-18T14:28:34.475Z,98174.03
2023-02-18T14:31:30.446Z,98159.06
2023-02-18T14:34:01.061Z,98152.66
2023-02-18T14:37:00.230Z,98143.59
2023-02-18T14:39:52.231Z,98147.09
2023-02-18T14:42:51.340Z,98146.22
2023-02-18T14:45:32.858Z,98131.22
2023-02-18T14:48:24.074Z,98121.88
2023-02-18T14:50:53.048Z,98113.53
2023-02-18T14:53:22.885Z,98101.41
2023-02-18T14:55:55.030Z,98111.53
2023-02-18T14:58:36.304Z,98102.94
2023-02-18T15:01:29.220Z,98093.69
2023-02-18T15:03:57.477Z,98086.09
2023-02-18T15:06:36.619Z,98077.53
2023-02-18T15:09:23.761Z,98091.75
2023-02-18T15:11:57.875Z,98080.22
2023-02-18T15:14:34.528Z,98082.06
2023-02-18T15:17:02.809Z,98075.09
2023-02-18T15:19:37.993Z,98075.09
2023-02-18T15:22:05.331Z,98075.34
2023-02-18T15:24:32.246Z,98067.34
2023-02-18T15:27:21.352Z,98067.34
2023-02-18T15:30:31.241Z,98048.25
2023-02-18T15:33:00.704Z,98040.59
2023-02-18T15:35:31.676Z,98051.38
2023-02-18T15:38:00.825Z,98045.34
2023-02-18T15:40:31.632Z,98042.00
2023-02-18T15:43:04.786Z,98040.56
2023-02-18T15:45:39.856Z,98027.44
2023-02-18T15:48:07.597Z,98026.66
2023-02-18T15:50:45.700Z,98027.53
2023-02-18T15:53:16.841Z,98018.78
2023-02-18T15:55:47.471Z,98014.31
2023-02-18T15:58:28.508Z,98017.81
2023-02-18T16:00:58.541Z,98011.00
2023-02-18T16:03:46.666Z,98003.28
2023-02-18T16:06:23.712Z,97991.88
2023-02-18T16:09:20.145Z,97984.00
2023-02-18T16:12:17.588Z,97983.91
2023-02-18T16:14:49.316Z,97977.72
2023-02-18T16:17:26.385Z,97970.69
2023-02-18T16:20:13.743Z,97978.50
2023-02-18T16:22:47.396Z,97967.22
2023-02-18T16:25:16.432Z,97960.31
2023-02-18T16:28:07.329Z,97935.81
2023-02-18T16:30:35.547Z,97928.69
2023-02-18T16:33:02.500Z,97921.66
2023-02-18T16:35:47.394Z,97923.44
2023-02-18T16:38:18.753Z,97939.31
2023-02-18T16:40:45.994Z,97928.81
2023-02-18T16:43:21.796Z,97925.31
2023-02-18T16:45:55.903Z,97928.03
2023-02-18T16:48:40.736Z,97919.22
2023-02-18T16:51:14.233Z,97916.66
2023-02-18T16:53:41.143Z,97912.19
2023-02-18T16:56:16.708Z,97900.91
2023-02-18T16:58:44.186Z,97900.13
2023-02-18T17:01:29.630Z,97895.22
2023-02-18T17:04:01.574Z,97887.47
2023-02-18T17:06:29.659Z,97876.22
2023-02-18T17:08:56.591Z,97875.59
2023-02-18T17:11:31.433Z,97867.13
2023-02-18T17:13:59.529Z,97865.59
2023-02-18T17:16:27.521Z,97867.59
2023-02-18T17:18:54.531Z,97861.72
2023-02-18T17:21:24.516Z,97864.78
2023-02-18T17:23:52.679Z,97867.81
2023-02-18T17:26:28.294Z,97868.16
2023-02-18T17:28:57.780Z,97850.97
2023-02-18T17:31:31.887Z,97837.31
2023-02-18T17:34:01.337Z,97822.66
2023-02-18T17:36:28.567Z,97819.50
2023-02-18T17:38:55.527Z,97819.72
2023-02-18T17:41:23.120Z,97816.63
2023-02-18T17:43:50.256Z,97802.88
2023-02-18T17:46:18.741Z,97803.94
2023-02-18T17:48:47.093Z,97798.00
2023-02-18T17:51:29.695Z,97790.38
2023-02-18T17:53:56.604Z,97782.81
2023-02-18T17:56:23.915Z,97786.72
2023-02-18T17:58:50.830Z,97782.31
2023-02-18T18:01:18.801Z,97765.53
2023-02-18T18:03:45.701Z,97760.22
2023-02-18T18:06:21.020Z,97755.88
2023-02-18T18:08:48.564Z,97753.91
2023-02-18T18:11:25.903Z,97765.41
2023-02-18T18:13:55.716Z,97764.53
2023-02-18T18:16:23.018Z,97768.69
2023-02-18T18:18:49.947Z,97766.84
2023-02-18T18:21:35.315Z,97770.53
2023-02-18T18:24:02.569Z,97763.09
2023-02-18T18:26:30.439Z,97771.94
2023-02-18T18:28:57.727Z,97771.72
2023-02-18T18:31:25.265Z,97776.59
2023-02-18T18:33:53.621Z,97781.91
2023-02-18T18:36:24.348Z,97773.94
2023-02-18T18:38:52.351Z,97780.03
2023-02-18T18:41:22.500Z,97774.69
2023-02-18T18:43:49.916Z,97766.63
2023-02-18T18:46:18.233Z,97782.34
2023-02-18T18:48:45.726Z,97783.31
2023-02-18T18:51:18.690Z,97794.75
2023-02-18T18:53:45.726Z,97796.59
2023-02-18T18:56:13.331Z,97800.81
2023-02-18T18:58:40.652Z,97791.91
2023-02-18T19:01:16.056Z,97852.22
2023-02-18T19:03:43.634Z,97830.22
2023-02-18T19:06:11.999Z,97811.19
2023-02-18T19:08:39.534Z,97823.56
2023-02-18T19:11:07.082Z,97819.94
2023-02-18T19:13:36.039Z,97810.97
2023-02-18T19:16:15.159Z,97800.47
2023-02-18T19:18:42.043Z,97809.63
2023-02-18T19:21:10.077Z,97802.19
2023-02-18T19:23:37.424Z,97816.38
2023-02-18T19:26:05.531Z,97807.56
2023-02-18T19:28:32.613Z,97810.72
2023-02-18T19:31:03.351Z,97828.78
2023-02-18T19:33:30.408Z,97827.72
2023-02-18T19:35:57.562Z,97833.56
2023-02-18T19:38:24.620Z,97821.34
2023-02-18T19:40:53.972Z,97822.22
2023-02-18T19:43:21.038Z,97810.63
2023-02-18T19:45:48.270Z,97806.00
2023-02-18T19:48:16.020Z,97799.88
2023-02-18T19:50:43.868Z,97798.91
2023-02-18T19:53:11.962Z,97794.56
2023-02-18T19:55:39.620Z,97777.97
2023-02-18T19:58:06.822Z,97788.22
2023-02-18T20:00:34.453Z,97789.16
2023-02-18T20:03:01.412Z,97800.41
2023-02-18T20:05:29.069Z,97793.22
2023-02-18T20:07:56.038Z,97783.44
2023-02-18T20:10:24.483Z,97778.25
2023-02-18T20:12:53.168Z,97769.13
2023-02-18T20:15:21.069Z,97781.31
2023-02-18T20:17:48.248Z,97773.44
2023-02-18T20:20:15.492Z,97773.28
2023-02-18T20:22:42.352Z,97780.00
2023-02-18T20:25:09.794Z,97775.47
2023-02-18T20:27:39.758Z,97767.53
2023-02-18T20:30:12.791Z,97779.75
2023-02-18T20:32:39.853Z,97774.31
2023-02-18T20:35:07.635Z,97783.63
2023-02-18T20:37:34.489Z,97784.25
2023-02-18T20:40:01.668Z,97767.19
2023-02-18T20:42:28.588Z,97779.13
2023-02-18T20:44:55.740Z,97772.91
2023-02-18T20:47:22.602Z,97786.44
2023-02-18T20:49:49.985Z,97786.28
2023-02-18T20:52:16.872Z,97780.00
2023-02-18T20:54:44.226Z,97795.66
2023-02-18T20:57:11.109Z,97819.22
2023-02-18T20:59:38.413Z,97823.22
2023-02-18T21:02:05.397Z,97837.81
2023-02-18T21:04:32.608Z,97878.84
2023-02-18T21:06:59.500Z,97919.44
2023-02-18T21:09:26.810Z,97942.28
2023-02-18T21:11:53.711Z,97939.44
2023-02-18T21:14:20.871Z,97939.38
2023-02-18T21:16:48.151Z,97936.56
2023-02-18T21:19:17.882Z,97924.06
2023-02-18T21:21:47.293Z,97908.31
2023-02-18T21:24:14.611Z,97913.78
2023-02-18T21:26:42.786Z,97904.34
2023-02-18T21:29:10.451Z,97902.19
2023-02-18T21:31:40.342Z,97912.75
2023-02-18T21:34:13.999Z,97916.38
2023-02-18T21:36:41.753Z,97912.28
2023-02-18T21:39:10.497Z,97929.00
2023-02-18T21:41:40.834Z,97937.50
2023-02-18T21:44:09.839Z,97937.66
2023-02-18T21:46:37.166Z,97927.16
2023-02-18T21:49:06.060Z,97938.63
2023-02-18T21:51:53.136Z,97941.19
2023-02-18T21:54:23.652Z,97949.00
2023-02-18T21:56:51.962Z,97947.06
2023-02-18T21:59:21.051Z,97951.31
2023-02-18T22:01:48.540Z,97960.16
2023-02-18T22:04:16.317Z,97972.31
2023-02-18T22:06:43.387Z,97972.16
2023-02-18T22:09:11.154Z,97980.78
2023-02-18T22:11:42.089Z,97983.25
2023-02-18T22:14:11.407Z,97977.94
2023-02-18T22:16:38.401Z,97992.69
2023-02-18T22:19:05.832Z,97975.25
2023-02-18T22:21:32.850Z,97994.41
2023-02-18T22:24:00.013Z,97998.94
2023-02-18T22:26:27.011Z,98000.56
2023-02-18T22:28:55.692Z,98005.84
2023-02-18T22:31:24.406Z,98014.38
2023-02-18T22:33:52.536Z,98017.13
2023-02-18T22:36:21.195Z,98025.09
2023-02-18T22:38:48.926Z,98027.72
2023-02-18T22:41:18.220Z,98033.88
2023-02-18T22:43:45.887Z,98046.19
2023-02-18T22:46:16.462Z,98063.50
2023-02-18T22:48:44.067Z,98057.53
2023-02-18T22:51:14.528Z,98061.22
2023-02-18T22:53:42.989Z,98076.97
2023-02-18T22:56:16.236Z,98072.00
2023-02-18T22:58:43.670Z,98082.44
2023-02-18T23:01:24.290Z,98085.81
2023-02-18T23:03:52.817Z,98097.38
2023-02-18T23:06:21.133Z,98091.25
2023-02-18T23:08:49.070Z,98097.38
2023-02-18T23:11:19.189Z,98101.88
2023-02-18T23:14:07.817Z,98101.94
2023-02-18T23:16:56.120Z,98109.91
2023-02-18T23:19:25.839Z,98119.72
2023-02-18T23:21:52.880Z,98123.34
2023-02-18T23:24:20.857Z,98137.28
2023-02-18T23:26:48.292Z,98132.03
2023-02-18T23:29:16.132Z,98127.72
2023-02-18T23:31:43.287Z,98146.09
2023-02-18T23:34:16.043Z,98144.41
2023-02-18T23:36:43.792Z,98147.13
2023-02-18T23:39:13.663Z,98148.13
2023-02-18T23:41:40.758Z,98161.47
2023-02-18T23:44:10.709Z,98160.59
2023-02-18T23:46:37.945Z,98161.44
2023-02-18T23:49:05.694Z,98158.94
2023-02-18T23:51:33.528Z,98147.59
2023-02-18T23:54:03.682Z,98160.84
2023-02-18T23:56:30.750Z,98158.44
2023-02-18T23:59:02.682Z,98161.19
